Time;durP1;ratioP1;P1;durP2;ratioP2;P2;SDS_P1;SDS_P2;PMS_P1;PMS_P2;Temp;Humidity;BMP_temperature;BMP_pressure;BME280_temperature;BME280_humidity;BME280_pressure;Samples;Min_cycle;Max_cycle;Signal;HPM_P1;HPM_P2
2022/11/28 00:01:35;;;;;;;20.20;11.63;;;5.70;99.90;;;;;;5054430;28;20433;-81
2022/11/28 00:04:01;;;;;;;19.83;10.77;;;5.70;99.90;;;;;;5052050;28;20478;-80
2022/11/28 00:06:27;;;;;;;21.67;11.20;;;5.70;99.90;;;;;;5051999;28;20021;-81
2022/11/28 00:08:56;;;;;;;23.17;11.83;;;5.80;99.90;;;;;;5053416;28;20545;-81
2022/11/28 00:11:21;;;;;;;20.43;11.37;;;5.80;99.90;;;;;;5052775;28;20140;-80
2022/11/28 00:13:47;;;;;;;19.13;9.40;;;5.80;99.90;;;;;;5064349;28;20444;-80
2022/11/28 00:16:16;;;;;;;19.63;10.07;;;5.80;99.90;;;;;;5052639;28;20033;-80
2022/11/28 00:18:42;;;;;;;18.67;9.97;;;5.80;99.90;;;;;;5052711;28;20462;-80
2022/11/28 00:21:10;;;;;;;21.40;10.53;;;5.80;99.90;;;;;;5055411;28;20120;-81
2022/11/28 00:23:36;;;;;;;19.63;9.77;;;5.80;99.90;;;;;;5053728;28;20033;-80
2022/11/28 00:26:13;;;;;;;17.23;9.50;;;5.80;99.90;;;;;;5064749;28;20021;-79
2022/11/28 00:28:39;;;;;;;19.10;10.33;;;5.80;99.90;;;;;;5072193;28;20041;-80
2022/11/28 00:31:05;;;;;;;18.50;9.57;;;5.80;99.90;;;;;;5073209;28;20029;-80
2022/11/28 00:33:34;;;;;;;18.67;9.43;;;5.80;99.90;;;;;;5072764;28;20024;-80
2022/11/28 00:36:03;;;;;;;17.37;9.77;;;5.80;99.90;;;;;;5067892;28;20098;-80
2022/11/28 00:38:30;;;;;;;18.33;9.67;;;5.70;99.90;;;;;;5051750;28;20108;-80
2022/11/28 00:41:01;;;;;;;19.83;10.10;;;5.70;99.90;;;;;;5051656;28;20033;-80
2022/11/28 00:43:27;;;;;;;19.07;9.80;;;5.70;99.90;;;;;;5052897;28;20033;-80
2022/11/28 00:45:53;;;;;;;18.67;8.93;;;5.60;99.90;;;;;;5051517;28;20032;-80
2022/11/28 00:48:19;;;;;;;21.60;11.03;;;5.60;99.90;;;;;;5051875;28;20037;-80
2022/11/28 00:50:45;;;;;;;17.30;9.47;;;5.60;99.90;;;;;;5051444;28;20033;-80
2022/11/28 00:53:11;;;;;;;20.23;10.40;;;5.60;99.90;;;;;;5054827;28;20064;-80
2022/11/28 00:55:40;;;;;;;19.17;9.70;;;5.60;99.90;;;;;;5055951;28;20482;-80
2022/11/28 00:58:06;;;;;;;19.37;10.10;;;5.60;99.90;;;;;;5055592;28;20079;-81
2022/11/28 01:00:32;;;;;;;18.53;10.33;;;5.70;99.90;;;;;;5056099;28;20028;-80
2022/11/28 01:02:58;;;;;;;17.73;9.53;;;5.70;99.90;;;;;;5055282;28;20025;-80
2022/11/28 01:05:24;;;;;;;21.20;9.43;;;5.70;99.90;;;;;;5055875;28;20048;-80
2022/11/28 01:07:50;;;;;;;19.93;10.50;;;5.70;99.90;;;;;;5054884;28;20091;-80
2022/11/28 01:10:16;;;;;;;20.73;10.50;;;5.70;99.90;;;;;;5056247;28;20025;-79
2022/11/28 01:12:42;;;;;;;14.87;9.03;;;5.70;99.90;;;;;;5053955;28;20311;-79
2022/11/28 01:15:10;;;;;;;17.40;9.57;;;5.70;99.90;;;;;;5055997;28;20546;-79
2022/11/28 01:17:36;;;;;;;18.70;10.03;;;5.80;99.90;;;;;;5054631;28;20158;-80
2022/11/28 01:20:04;;;;;;;20.43;10.20;;;5.70;99.90;;;;;;5054739;28;20086;-80
2022/11/28 01:22:30;;;;;;;19.23;9.30;;;5.70;99.90;;;;;;5055615;28;20033;-80
2022/11/28 01:24:56;;;;;;;16.20;10.00;;;5.70;99.90;;;;;;5055092;28;20028;-82
2022/11/28 01:27:21;;;;;;;19.17;9.77;;;5.70;99.90;;;;;;5054956;28;20512;-81
2022/11/28 01:29:47;;;;;;;17.23;9.27;;;5.60;99.90;;;;;;5054545;28;20032;-81
2022/11/28 01:32:13;;;;;;;18.20;9.70;;;5.60;99.90;;;;;;5056253;28;20044;-81
2022/11/28 01:34:39;;;;;;;17.13;9.60;;;5.70;99.90;;;;;;5054543;28;20111;-82
2022/11/28 01:37:05;;;;;;;18.03;9.90;;;5.60;99.90;;;;;;5055163;28;20064;-82
2022/11/28 01:39:31;;;;;;;19.03;9.73;;;5.70;99.90;;;;;;5054639;28;20075;-82
2022/11/28 01:41:56;;;;;;;18.90;9.80;;;5.70;99.90;;;;;;5054893;28;20032;-81
2022/11/28 01:44:22;;;;;;;20.37;10.17;;;5.70;99.90;;;;;;5055753;28;20437;-82
2022/11/28 01:46:47;;;;;;;18.73;9.23;;;5.70;99.90;;;;;;5054324;28;20032;-82
2022/11/28 01:49:22;;;;;;;18.43;9.90;;;5.70;99.90;;;;;;5054502;28;20032;-80
2022/11/28 01:51:52;;;;;;;17.10;9.33;;;5.70;99.90;;;;;;5054167;28;20119;-80
2022/11/28 01:54:21;;;;;;;18.23;10.20;;;5.80;99.90;;;;;;5055181;28;20036;-80
2022/11/28 01:56:50;;;;;;;14.97;9.70;;;5.70;99.90;;;;;;5053817;28;20029;-80
2022/11/28 01:59:18;;;;;;;18.50;9.43;;;5.70;99.90;;;;;;5054523;28;20029;-80
2022/11/28 02:01:45;;;;;;;18.67;9.53;;;5.70;99.90;;;;;;5053933;28;20029;-80
2022/11/28 02:04:13;;;;;;;16.93;9.23;;;5.70;99.90;;;;;;5053435;28;20118;-80
2022/11/28 02:06:39;;;;;;;19.57;9.83;;;5.70;99.90;;;;;;5054106;28;20025;-81
2022/11/28 02:09:15;;;;;;;18.77;9.53;;;5.80;99.90;;;;;;5054250;28;20091;-79
2022/11/28 02:12:05;;;;;;;19.30;8.87;;;5.70;99.90;;;;;;5053457;28;20136;-80
2022/11/28 02:14:58;;;;;;;19.50;9.40;;;5.70;99.90;;;;;;5053424;28;20466;-80
2022/11/28 02:17:35;;;;;;;21.90;9.13;;;5.60;99.90;;;;;;5054983;28;20104;-80
2022/11/28 02:20:25;;;;;;;17.27;8.97;;;5.60;99.90;;;;;;5054205;28;20021;-80
2022/11/28 02:23:06;;;;;;;15.23;8.67;;;5.60;99.90;;;;;;5053721;28;20486;-79
2022/11/28 02:26:33;;;;;;;15.20;8.57;;;5.60;99.90;;;;;;5054513;28;20025;-80
2022/11/28 02:29:12;;;;;;;14.17;8.23;;;5.60;99.90;;;;;;5016195;28;20039;-79
2022/11/28 02:32:16;;;;;;;13.80;7.80;;;5.60;99.90;;;;;;5032196;28;20034;-79
2022/11/28 02:35:09;;;;;;;16.20;7.90;;;5.60;99.90;;;;;;5011866;28;20029;-79
2022/11/28 02:38:02;;;;;;;15.53;8.87;;;5.60;99.90;;;;;;5054079;28;20040;-79
2022/11/28 02:40:55;;;;;;;15.30;8.63;;;5.60;99.90;;;;;;5052538;28;20032;-82
2022/11/28 02:44:08;;;;;;;14.80;8.67;;;5.50;99.90;;;;;;5053650;28;20033;-80
2022/11/28 02:46:57;;;;;;;15.00;8.20;;;5.50;99.90;;;;;;5047211;28;20048;-80
2022/11/28 02:49:27;;;;;;;14.23;8.10;;;5.50;99.90;;;;;;5053351;28;20471;-80
2022/11/28 02:52:02;;;;;;;14.83;8.47;;;5.50;99.90;;;;;;5053474;28;20462;-80
2022/11/28 02:54:30;;;;;;;15.03;7.83;;;5.50;99.90;;;;;;5054623;28;20082;-80
2022/11/28 02:56:56;;;;;;;15.90;9.17;;;5.50;99.90;;;;;;5054337;28;20021;-80
2022/11/28 02:59:35;;;;;;;16.70;8.27;;;5.40;99.90;;;;;;5054322;28;20028;-79
2022/11/28 03:02:01;;;;;;;15.90;8.67;;;5.40;99.90;;;;;;5052839;28;20120;-79
2022/11/28 03:04:50;;;;;;;19.50;8.83;;;5.40;99.90;;;;;;5052848;28;20051;-79
2022/11/28 03:07:45;;;;;;;16.13;8.33;;;5.40;99.90;;;;;;5053165;28;20462;-79
2022/11/28 03:10:22;;;;;;;12.90;7.53;;;5.40;99.90;;;;;;5053241;28;20033;-79
2022/11/28 03:13:06;;;;;;;15.20;8.40;;;5.40;99.90;;;;;;5054050;28;20398;-79
2022/11/28 03:15:42;;;;;;;15.07;8.30;;;5.40;99.90;;;;;;5052281;28;20025;-80
2022/11/28 03:18:16;;;;;;;14.73;7.87;;;5.40;99.90;;;;;;5053099;28;20036;-80
2022/11/28 03:20:48;;;;;;;19.13;8.43;;;5.40;99.90;;;;;;5052648;28;20083;-81
2022/11/28 03:23:19;;;;;;;;;;;5.40;99.90;;;;;;5053190;28;20107;-80
2022/11/28 03:25:53;;;;;;;13.97;8.13;;;5.40;99.90;;;;;;5052160;28;19911;-79
2022/11/28 03:28:51;;;;;;;15.43;8.03;;;5.40;99.90;;;;;;5052668;28;20382;-79
2022/11/28 03:31:28;;;;;;;16.50;9.10;;;5.40;99.90;;;;;;5047965;28;20037;-79
2022/11/28 03:33:56;;;;;;;16.73;8.77;;;5.30;99.90;;;;;;5052257;28;20025;-80
2022/11/28 03:36:27;;;;;;;19.70;8.77;;;5.30;99.90;;;;;;5053505;28;20071;-79
2022/11/28 03:39:02;;;;;;;14.73;8.90;;;5.40;99.90;;;;;;5051964;28;20033;-79
2022/11/28 03:41:33;;;;;;;19.53;9.27;;;5.30;99.90;;;;;;5052233;28;20536;-80
2022/11/28 03:44:01;;;;;;;18.77;8.87;;;5.20;99.90;;;;;;5052792;28;20052;-79
2022/11/28 03:46:35;;;;;;;15.70;7.87;;;5.20;99.90;;;;;;5054183;28;20029;-80
2022/11/28 03:49:02;;;;;;;17.30;8.67;;;5.10;99.90;;;;;;5052756;28;20075;-79
2022/11/28 03:51:36;;;;;;;17.50;9.20;;;5.20;99.90;;;;;;5053567;28;20105;-80
2022/11/28 03:54:21;;;;;;;16.63;9.07;;;5.20;99.90;;;;;;5053706;28;20092;-80
2022/11/28 03:56:56;;;;;;;16.80;8.60;;;5.20;99.90;;;;;;5052385;28;20021;-80
2022/11/28 03:59:31;;;;;;;14.80;8.07;;;5.20;99.90;;;;;;5054031;28;20060;-79
2022/11/28 04:02:18;;;;;;;17.30;8.67;;;5.20;99.90;;;;;;5052629;28;20025;-80
2022/11/28 04:04:59;;;;;;;14.30;8.10;;;5.10;99.90;;;;;;5052063;28;20072;-80
2022/11/28 04:07:30;;;;;;;14.00;7.95;;;5.10;99.90;;;;;;5052944;28;20033;-81
2022/11/28 04:10:14;;;;;;;14.50;7.97;;;5.20;99.90;;;;;;5051886;28;20068;-78
2022/11/28 04:13:03;;;;;;;17.13;7.70;;;5.10;99.90;;;;;;5052421;28;20057;-80
2022/11/28 04:15:54;;;;;;;17.93;8.60;;;5.10;99.90;;;;;;5052363;28;20033;-80
2022/11/28 04:18:24;;;;;;;14.37;7.97;;;5.20;99.90;;;;;;5053414;28;20029;-80
2022/11/28 04:21:12;;;;;;;14.07;7.57;;;5.20;99.90;;;;;;5052784;28;20094;-80
2022/11/28 04:23:41;;;;;;;12.67;7.53;;;5.20;99.90;;;;;;5052998;28;20116;-81
2022/11/28 04:26:17;;;;;;;16.10;8.50;;;5.20;99.90;;;;;;5053297;28;20069;-80
2022/11/28 04:28:45;;;;;;;16.93;8.13;;;5.20;99.90;;;;;;5056352;28;20029;-79
2022/11/28 04:31:12;;;;;;;13.40;8.13;;;5.10;99.90;;;;;;5055758;28;20086;-81
2022/11/28 04:33:45;;;;;;;18.17;8.50;;;5.20;99.90;;;;;;5055749;28;20036;-81
2022/11/28 04:36:12;;;;;;;18.93;9.40;;;5.20;99.90;;;;;;5056609;28;20025;-80
2022/11/28 04:38:39;;;;;;;14.37;7.77;;;5.10;99.90;;;;;;5055642;28;20035;-80
2022/11/28 04:41:13;;;;;;;13.43;8.17;;;5.20;99.90;;;;;;5056965;28;20078;-80
2022/11/28 04:43:42;;;;;;;13.40;7.57;;;5.10;99.90;;;;;;5055428;28;20030;-80
2022/11/28 04:46:23;;;;;;;14.73;7.93;;;5.10;99.90;;;;;;5055712;28;20074;-79
2022/11/28 04:48:49;;;;;;;13.02;7.53;;;5.10;99.90;;;;;;5056205;28;20029;-80
2022/11/28 04:51:30;;;;;;;13.17;7.13;;;5.10;99.90;;;;;;5055500;28;20021;-80
2022/11/28 04:54:07;;;;;;;11.40;7.13;;;5.20;99.90;;;;;;5054806;28;20040;-80
2022/11/28 04:56:40;;;;;;;13.70;7.53;;;5.20;99.90;;;;;;5051230;28;20132;-80
2022/11/28 04:59:07;;;;;;;13.27;7.33;;;5.20;99.90;;;;;;5056315;28;20389;-81
2022/11/28 05:01:34;;;;;;;13.70;7.33;;;5.20;99.90;;;;;;5055778;28;20508;-81
2022/11/28 05:04:01;;;;;;;12.10;7.10;;;5.10;99.90;;;;;;5056169;28;20021;-80
2022/11/28 05:06:30;;;;;;;12.97;7.07;;;5.10;99.90;;;;;;5055602;28;20020;-79
2022/11/28 05:08:55;;;;;;;11.23;7.20;;;5.10;99.90;;;;;;5055056;28;20552;-82
2022/11/28 05:11:21;;;;;;;11.83;7.47;;;5.10;99.90;;;;;;5055210;28;20041;-80
2022/11/28 05:13:47;;;;;;;12.80;7.37;;;5.10;99.90;;;;;;5055271;28;20146;-81
2022/11/28 05:16:14;;;;;;;13.87;7.63;;;5.10;99.90;;;;;;5056488;28;20021;-81
2022/11/28 05:18:39;;;;;;;12.80;7.07;;;5.10;99.90;;;;;;5055916;28;20029;-82
2022/11/28 05:21:07;;;;;;;11.77;7.07;;;5.10;99.90;;;;;;5056438;28;20028;-82
2022/11/28 05:23:37;;;;;;;12.33;7.00;;;5.10;99.90;;;;;;5055720;28;20029;-81
2022/11/28 05:26:07;;;;;;;13.87;7.57;;;5.10;99.90;;;;;;5055114;28;20025;-82
2022/11/28 05:28:33;;;;;;;16.03;7.50;;;5.10;99.90;;;;;;5055339;28;20032;-81
2022/11/28 05:31:00;;;;;;;10.90;6.83;;;5.10;99.90;;;;;;5055862;28;20032;-82
2022/11/28 05:33:28;;;;;;;13.70;6.80;;;5.10;99.90;;;;;;5056164;28;20025;-82
2022/11/28 05:35:53;;;;;;;12.83;7.40;;;5.10;99.90;;;;;;5054828;28;20025;-81
2022/11/28 05:38:19;;;;;;;12.57;6.80;;;5.10;99.90;;;;;;5053780;28;20040;-80
2022/11/28 05:40:44;;;;;;;14.90;7.53;;;5.10;99.90;;;;;;5054206;28;20029;-81
2022/11/28 05:43:10;;;;;;;12.43;6.70;;;5.10;99.90;;;;;;5054910;28;20041;-80
2022/11/28 05:45:43;;;;;;;12.87;6.53;;;5.00;99.90;;;;;;5056187;28;20021;-80
2022/11/28 05:48:09;;;;;;;13.13;7.13;;;5.00;99.90;;;;;;5056049;28;20033;-80
2022/11/28 05:50:37;;;;;;;11.87;6.80;;;5.00;99.90;;;;;;5055842;28;20025;-81
2022/11/28 05:53:02;;;;;;;11.53;6.90;;;5.00;99.90;;;;;;5054570;28;20025;-81
2022/11/28 05:55:28;;;;;;;11.40;6.10;;;5.00;99.90;;;;;;5054964;28;20052;-81
2022/11/28 05:57:53;;;;;;;10.67;6.00;;;5.00;99.90;;;;;;5055328;28;20036;-81
2022/11/28 06:00:19;;;;;;;9.47;5.93;;;5.00;99.90;;;;;;5054754;28;20373;-80
2022/11/28 06:02:45;;;;;;;10.70;6.00;;;5.00;99.90;;;;;;5054280;28;20048;-81
2022/11/28 06:05:11;;;;;;;11.07;6.10;;;5.00;99.90;;;;;;5054220;28;20466;-81
2022/11/28 06:07:36;;;;;;;9.27;5.80;;;5.10;99.90;;;;;;5054275;28;20131;-79
2022/11/28 06:10:02;;;;;;;11.63;6.50;;;5.10;99.90;;;;;;5054350;28;20458;-79
2022/11/28 06:12:28;;;;;;;13.17;6.80;;;5.10;99.90;;;;;;5054113;28;20049;-81
2022/11/28 06:14:53;;;;;;;9.67;5.73;;;5.10;99.90;;;;;;5055230;28;20478;-81
2022/11/28 06:17:19;;;;;;;12.87;6.43;;;5.10;99.90;;;;;;5054377;28;20039;-80
2022/11/28 06:19:44;;;;;;;10.50;6.30;;;5.10;99.90;;;;;;5054666;28;20375;-80
2022/11/28 06:22:10;;;;;;;11.97;6.37;;;5.10;99.90;;;;;;5055081;28;20104;-80
2022/11/28 06:24:35;;;;;;;9.17;5.97;;;5.10;99.90;;;;;;5055402;28;20025;-81
2022/11/28 06:27:01;;;;;;;9.97;5.53;;;5.10;99.90;;;;;;5054736;28;20040;-82
2022/11/28 06:29:27;;;;;;;8.90;5.87;;;5.10;99.90;;;;;;5055147;28;20076;-82
2022/11/28 06:31:52;;;;;;;12.27;6.00;;;5.10;99.90;;;;;;5053667;28;20025;-80
2022/11/28 06:34:18;;;;;;;12.87;6.07;;;5.20;99.90;;;;;;5055258;28;20032;-80
2022/11/28 06:36:44;;;;;;;11.37;6.07;;;5.10;99.90;;;;;;5053476;28;20059;-80
2022/11/28 06:39:15;;;;;;;16.10;6.37;;;5.10;99.90;;;;;;5054113;28;20082;-79
2022/11/28 06:41:41;;;;;;;8.57;5.75;;;5.10;99.90;;;;;;5054915;28;20450;-80
2022/11/28 06:44:10;;;;;;;10.97;5.40;;;5.10;99.90;;;;;;5053906;28;20371;-80
2022/11/28 06:46:36;;;;;;;10.77;6.20;;;5.10;99.90;;;;;;5053637;28;20021;-80
2022/11/28 06:49:02;;;;;;;9.27;5.40;;;5.10;99.90;;;;;;5054044;28;20103;-80
2022/11/28 06:51:28;;;;;;;10.13;6.17;;;5.10;99.90;;;;;;5053293;28;20028;-80
2022/11/28 06:53:54;;;;;;;9.33;5.40;;;5.10;99.90;;;;;;5052884;28;20032;-80
2022/11/28 06:56:20;;;;;;;8.77;5.57;;;5.10;99.90;;;;;;5053544;28;20025;-80
2022/11/28 06:58:51;;;;;;;9.77;6.17;;;5.10;99.90;;;;;;5053227;28;20485;-81
2022/11/28 07:01:19;;;;;;;13.75;6.38;;;5.10;99.90;;;;;;5054736;28;20029;-80
2022/11/28 07:03:46;;;;;;;11.10;5.90;;;5.10;99.90;;;;;;5053973;28;20036;-80
2022/11/28 07:06:13;;;;;;;9.23;5.60;;;5.10;99.90;;;;;;5053426;28;20102;-80
2022/11/28 07:08:39;;;;;;;8.23;5.60;;;5.10;99.90;;;;;;5054277;28;20033;-80
2022/11/28 07:11:12;;;;;;;10.00;5.70;;;5.10;99.90;;;;;;5052526;28;20025;-80
2022/11/28 07:13:39;;;;;;;9.83;6.30;;;5.10;99.90;;;;;;5054136;28;20386;-81
2022/11/28 07:16:06;;;;;;;9.07;5.80;;;5.10;99.90;;;;;;5052017;28;20115;-80
2022/11/28 07:18:32;;;;;;;8.93;5.60;;;5.10;99.90;;;;;;5052432;28;20031;-80
2022/11/28 07:20:57;;;;;;;12.83;5.53;;;5.10;99.90;;;;;;5052100;28;20044;-81
2022/11/28 07:23:24;;;;;;;11.07;5.63;;;5.20;99.90;;;;;;5052855;28;20458;-79
2022/11/28 07:25:49;;;;;;;10.87;6.00;;;5.20;99.90;;;;;;5053229;28;20100;-79
2022/11/28 07:28:15;;;;;;;8.90;5.33;;;5.20;99.90;;;;;;5052539;28;20545;-81
2022/11/28 07:30:41;;;;;;;8.57;5.13;;;5.20;99.90;;;;;;5052865;28;20033;-80
2022/11/28 07:33:06;;;;;;;12.27;5.47;;;5.30;99.90;;;;;;5052073;28;20027;-79
2022/11/28 07:35:33;;;;;;;10.50;5.30;;;5.30;99.90;;;;;;5052589;28;20040;-81
2022/11/28 07:37:58;;;;;;;9.77;5.83;;;5.30;99.90;;;;;;5052319;28;20492;-82
2022/11/28 07:40:24;;;;;;;10.47;5.70;;;5.30;99.90;;;;;;5053830;28;20025;-83
2022/11/28 07:42:50;;;;;;;9.97;5.60;;;5.30;99.90;;;;;;5053004;28;20108;-82
2022/11/28 07:45:16;;;;;;;9.67;5.90;;;5.30;99.90;;;;;;5053926;28;20425;-82
2022/11/28 07:47:41;;;;;;;11.97;5.50;;;5.40;99.90;;;;;;5052918;28;20037;-82
2022/11/28 07:50:08;;;;;;;8.83;5.40;;;5.30;99.90;;;;;;5052343;28;20021;-81
2022/11/28 07:52:33;;;;;;;9.00;5.00;;;5.40;99.90;;;;;;5053061;28;20036;-80
2022/11/28 07:54:59;;;;;;;14.00;5.60;;;5.40;99.90;;;;;;5052135;28;20021;-80
2022/11/28 07:57:24;;;;;;;8.47;5.73;;;5.40;99.90;;;;;;5052872;28;20083;-80
2022/11/28 07:59:50;;;;;;;8.03;5.40;;;5.40;99.90;;;;;;5052032;28;20472;-80
2022/11/28 08:02:15;;;;;;;11.00;6.00;;;5.50;99.90;;;;;;5054853;28;20036;-80
2022/11/28 08:04:41;;;;;;;12.00;5.83;;;5.50;99.90;;;;;;5056297;28;20025;-80
2022/11/28 08:07:06;;;;;;;7.73;4.97;;;5.50;99.90;;;;;;5056039;28;20032;-80
2022/11/28 08:09:32;;;;;;;9.40;5.60;;;5.50;99.90;;;;;;5057485;28;20057;-80
2022/11/28 08:11:58;;;;;;;10.23;5.20;;;5.50;99.90;;;;;;5056488;28;20124;-79
2022/11/28 08:14:24;;;;;;;10.67;5.87;;;5.60;99.90;;;;;;5056346;28;20040;-80
2022/11/28 08:16:50;;;;;;;8.20;5.10;;;5.60;99.90;;;;;;5056093;28;20033;-83
2022/11/28 08:19:15;;;;;;;9.03;5.40;;;5.60;99.90;;;;;;5055826;28;20489;-80
2022/11/28 08:21:41;;;;;;;9.27;4.97;;;5.60;99.90;;;;;;5056014;28;20029;-80
2022/11/28 08:24:07;;;;;;;10.30;5.10;;;5.60;99.90;;;;;;5055110;28;20099;-80
2022/11/28 08:26:35;;;;;;;10.97;5.57;;;5.70;99.90;;;;;;5057008;28;20030;-80
2022/11/28 08:29:01;;;;;;;13.77;5.47;;;5.70;99.90;;;;;;5056324;28;20065;-80
2022/11/28 08:31:30;;;;;;;9.50;5.47;;;5.70;99.90;;;;;;5055748;28;20029;-83
2022/11/28 08:33:59;;;;;;;11.97;5.90;;;5.70;99.90;;;;;;5055497;28;20074;-81
2022/11/28 08:36:24;;;;;;;10.33;5.77;;;5.70;99.90;;;;;;5056978;28;20025;-83
2022/11/28 08:38:50;;;;;;;9.33;5.47;;;5.70;99.90;;;;;;5055689;28;20044;-83
2022/11/28 08:41:18;;;;;;;8.63;5.20;;;5.70;99.90;;;;;;5056776;28;20033;-81
2022/11/28 08:43:45;;;;;;;9.63;5.33;;;5.70;99.90;;;;;;5055659;28;20114;-81
2022/11/28 08:46:15;;;;;;;9.03;5.43;;;5.70;99.90;;;;;;5055107;28;20021;-82
2022/11/28 08:48:41;;;;;;;9.03;5.23;;;5.80;99.90;;;;;;5055491;28;20043;-81
2022/11/28 08:51:09;;;;;;;9.73;5.50;;;5.80;99.90;;;;;;5056077;28;20128;-82
2022/11/28 08:53:35;;;;;;;9.57;5.20;;;5.80;99.90;;;;;;5056783;28;20025;-81
2022/11/28 08:56:00;;;;;;;7.40;4.43;;;5.80;99.90;;;;;;5055289;28;20025;-82
2022/11/28 08:58:26;;;;;;;9.53;5.33;;;5.90;99.90;;;;;;5055678;28;20108;-83
2022/11/28 09:00:51;;;;;;;10.20;5.37;;;5.90;99.90;;;;;;5055289;28;20025;-83
2022/11/28 09:03:18;;;;;;;10.07;5.53;;;5.90;99.90;;;;;;5056778;28;20035;-82
2022/11/28 09:05:46;;;;;;;11.23;5.70;;;5.90;99.90;;;;;;5055616;28;20021;-82
2022/11/28 09:08:16;;;;;;;11.90;5.47;;;5.90;99.90;;;;;;5054730;28;20037;-82
2022/11/28 09:10:44;;;;;;;8.53;5.53;;;6.00;99.90;;;;;;5055727;28;20408;-82
2022/11/28 09:13:10;;;;;;;11.53;5.57;;;6.00;99.90;;;;;;5054470;28;20053;-82
2022/11/28 09:15:39;;;;;;;14.03;6.17;;;6.00;99.90;;;;;;5055591;28;20459;-84
2022/11/28 09:18:05;;;;;;;10.10;5.80;;;6.10;99.90;;;;;;5054992;28;20029;-82
2022/11/28 09:20:32;;;;;;;10.80;5.27;;;6.10;99.90;;;;;;5055173;28;20052;-82
2022/11/28 09:22:59;;;;;;;9.10;5.23;;;6.10;99.90;;;;;;5055422;28;20351;-84
2022/11/28 09:25:24;;;;;;;9.27;5.13;;;6.10;99.90;;;;;;5056040;28;20021;-82
2022/11/28 09:27:50;;;;;;;11.13;5.53;;;6.20;99.90;;;;;;5055023;28;20033;-83
2022/11/28 09:30:16;;;;;;;11.43;5.33;;;6.20;99.90;;;;;;5054859;28;20056;-83
2022/11/28 09:32:42;;;;;;;11.40;5.73;;;6.20;99.90;;;;;;5056188;28;20026;-83
2022/11/28 09:35:08;;;;;;;10.00;5.50;;;6.20;99.90;;;;;;5055391;28;20082;-80
2022/11/28 09:37:33;;;;;;;10.07;5.30;;;6.30;99.90;;;;;;5054576;28;20031;-81
2022/11/28 09:39:59;;;;;;;10.63;5.50;;;6.30;99.90;;;;;;5055236;28;20478;-82
2022/11/28 09:42:35;;;;;;;8.47;5.50;;;6.30;99.90;;;;;;5054559;28;20112;-82
2022/11/28 09:45:23;;;;;;;12.37;5.70;;;6.30;99.90;;;;;;5046522;28;20462;-83
2022/11/28 09:48:13;;;;;;;9.77;5.80;;;6.30;99.90;;;;;;5054256;28;20037;-81
2022/11/28 09:50:40;;;;;;;8.13;5.30;;;6.30;99.90;;;;;;5053982;28;20021;-82
2022/11/28 09:53:26;;;;;;;12.67;5.70;;;6.30;99.90;;;;;;5058973;28;20025;-82
2022/11/28 09:56:00;;;;;;;11.97;6.20;;;6.40;99.90;;;;;;5048981;28;20032;-77
2022/11/28 09:58:46;;;;;;;9.90;5.67;;;6.40;99.90;;;;;;5056092;28;20028;-85
2022/11/28 10:01:20;;;;;;;9.37;5.37;;;6.50;99.90;;;;;;5043438;28;20111;-84
2022/11/28 10:04:18;;;;;;;9.53;5.43;;;6.50;99.90;;;;;;5060818;28;20016;-84
2022/11/28 10:06:58;;;;;;;9.60;5.33;;;6.60;99.90;;;;;;5059558;28;20040;-86
2022/11/28 10:09:41;;;;;;;10.03;5.30;;;6.60;99.90;;;;;;5065364;28;20052;-84
2022/11/28 10:12:24;;;;;;;9.07;5.43;;;6.70;99.90;;;;;;5068354;28;20123;-83
2022/11/28 10:15:22;;;;;;;14.03;6.17;;;6.70;99.90;;;;;;5064307;28;20071;-84
2022/11/28 10:17:57;;;;;;;9.93;5.17;;;6.70;99.90;;;;;;5046149;28;20048;-87
2022/11/28 10:20:27;;;;;;;10.43;5.83;;;6.80;99.90;;;;;;5056508;28;20036;-86
2022/11/28 10:23:44;;;;;;;9.43;5.67;;;6.70;99.90;;;;;;5056710;28;20020;-82
2022/11/28 10:26:21;;;;;;;10.53;5.83;;;6.80;99.90;;;;;;5022099;28;20029;-86
2022/11/28 10:28:50;;;;;;;11.23;6.13;;;6.90;99.90;;;;;;5064737;28;20068;-88
2022/11/28 10:31:40;;;;;;;9.50;5.60;;;6.90;99.90;;;;;;5070101;28;20060;-88
2022/11/28 10:34:08;;;;;;;11.67;6.00;;;7.00;99.90;;;;;;5054982;28;20029;-90
2022/11/28 10:36:50;;;;;;;11.27;5.90;;;7.00;99.90;;;;;;5061053;28;20028;-87
2022/11/28 10:39:15;;;;;;;12.10;5.70;;;7.00;99.90;;;;;;5056835;28;20021;-86
2022/11/28 10:42:10;;;;;;;10.47;5.40;;;7.00;99.90;;;;;;5065493;28;20036;-86
2022/11/28 10:44:58;;;;;;;11.53;5.40;;;7.10;99.90;;;;;;5054245;28;20389;-86
2022/11/28 10:48:07;;;;;;;10.03;6.10;;;7.10;99.90;;;;;;5062372;28;20085;-88
2022/11/28 10:50:50;;;;;;;11.30;5.90;;;7.20;99.90;;;;;;5061233;28;20013;-84
2022/11/28 10:53:37;;;;;;;13.03;5.73;;;7.20;99.90;;;;;;5063311;28;20020;-89
2022/11/28 10:56:39;;;;;;;12.43;6.27;;;7.30;99.90;;;;;;5052442;28;20032;-85
2022/11/28 10:59:20;;;;;;;11.35;5.97;;;7.40;99.90;;;;;;5055977;28;20028;-86
2022/11/28 11:01:47;;;;;;;13.40;6.80;;;7.40;99.90;;;;;;5057650;28;20029;-80
2022/11/28 11:04:18;;;;;;;13.70;6.23;;;7.40;99.90;;;;;;5058638;28;20218;-80
2022/11/28 11:07:02;;;;;;;8.52;5.45;;;7.50;99.90;;;;;;5061621;28;20029;-83
2022/11/28 11:09:27;;;;;;;10.37;5.90;;;7.50;99.90;;;;;;5062252;28;20500;-80
2022/11/28 11:11:59;;;;;;;9.65;5.88;;;7.60;99.90;;;;;;5059640;28;20053;-80
2022/11/28 11:14:42;;;;;;;12.23;5.83;;;7.60;99.90;;;;;;5065725;28;20086;-77
2022/11/28 11:17:33;;;;;;;10.47;5.83;;;7.60;99.90;;;;;;5055615;28;20021;-78
2022/11/28 11:19:59;;;;;;;12.20;6.10;;;7.70;99.90;;;;;;5052022;28;20033;-78
2022/11/28 11:22:30;;;;;;;10.27;5.80;;;7.70;99.90;;;;;;5058992;28;20025;-78
2022/11/28 11:25:16;;;;;;;12.77;6.00;;;7.80;99.90;;;;;;5053795;28;20017;-78
2022/11/28 11:27:56;;;;;;;12.45;5.82;;;7.80;99.90;;;;;;5065162;28;20289;-79
2022/11/28 11:30:38;;;;;;;15.70;6.22;;;7.90;99.90;;;;;;5065890;28;20051;-79
2022/11/28 11:33:05;;;;;;;11.98;6.05;;;7.80;99.90;;;;;;5061857;28;20024;-77
2022/11/28 11:35:41;;;;;;;11.87;5.90;;;7.90;99.90;;;;;;5061313;28;20044;-80
2022/11/28 11:38:19;;;;;;;11.48;6.15;;;7.90;99.90;;;;;;5058834;28;20060;-78
2022/11/28 11:40:46;;;;;;;9.38;6.07;;;8.00;99.90;;;;;;5060947;28;20037;-78
2022/11/28 11:43:34;;;;;;;9.82;5.63;;;8.00;99.90;;;;;;5057140;28;20025;-78
2022/11/28 11:46:06;;;;;;;9.75;5.85;;;8.00;99.90;;;;;;5052280;28;20104;-76
2022/11/28 11:48:40;;;;;;;10.73;6.10;;;8.10;99.90;;;;;;5058435;28;20186;-77
2022/11/28 11:51:24;;;;;;;13.30;5.95;;;8.20;99.90;;;;;;5061444;28;20054;-77
2022/11/28 11:54:04;;;;;;;9.75;5.22;;;8.30;99.90;;;;;;5051158;28;20382;-78
2022/11/28 11:56:37;;;;;;;12.75;6.40;;;8.40;99.90;;;;;;5060001;28;20028;-77
2022/11/28 11:59:12;;;;;;;10.23;5.75;;;8.40;99.90;;;;;;5062236;28;20470;-79
2022/11/28 12:01:39;;;;;;;9.63;6.22;;;8.50;99.90;;;;;;5062437;28;20021;-78
2022/11/28 12:04:16;;;;;;;12.80;6.10;;;8.60;99.90;;;;;;5059285;28;20025;-79
2022/11/28 12:06:47;;;;;;;13.25;6.40;;;8.60;99.90;;;;;;5060362;28;20113;-78
2022/11/28 12:09:25;;;;;;;10.32;5.68;;;8.60;99.90;;;;;;5061430;28;20024;-78
2022/11/28 12:12:19;;;;;;;10.40;6.03;;;8.70;99.90;;;;;;5054331;28;20048;-79
2022/11/28 12:14:47;;;;;;;12.18;6.13;;;8.70;99.90;;;;;;5064358;28;20067;-78
2022/11/28 12:17:34;;;;;;;10.52;5.22;;;8.70;99.90;;;;;;5061290;28;20032;-77
2022/11/28 12:20:21;;;;;;;11.57;5.50;;;8.70;99.90;;;;;;5052250;28;20472;-78
2022/11/28 12:23:23;;;;;;;9.45;5.18;;;8.70;99.90;;;;;;5062187;28;20052;-78
2022/11/28 12:25:58;;;;;;;9.35;5.18;;;8.80;99.90;;;;;;5048859;28;20064;-78
2022/11/28 12:28:54;;;;;;;10.00;5.72;;;8.80;99.90;;;;;;5059315;28;20025;-78
2022/11/28 12:31:36;;;;;;;10.57;5.22;;;8.80;99.90;;;;;;5063855;28;20025;-80
2022/11/28 12:34:20;;;;;;;9.00;4.55;;;8.80;99.90;;;;;;5064812;28;20028;-79
2022/11/28 12:37:29;;;;;;;8.95;4.88;;;8.80;99.90;;;;;;5062473;28;20032;-79
2022/11/28 12:40:21;;;;;;;11.88;4.90;;;8.80;99.90;;;;;;5048636;28;20461;-79
2022/11/28 12:43:03;;;;;;;9.35;4.63;;;8.80;99.90;;;;;;5033857;28;20049;-86
2022/11/28 12:45:35;;;;;;;13.82;5.75;;;8.80;99.90;;;;;;5052827;28;20124;-85
2022/11/28 12:48:19;;;;;;;10.57;5.90;;;8.70;99.90;;;;;;5051545;28;20040;-85
2022/11/28 12:50:52;;;;;;;8.75;5.28;;;8.80;99.90;;;;;;5064608;28;20020;-87
2022/11/28 12:53:53;;;;;;;10.98;4.90;;;8.80;99.90;;;;;;5065424;28;20035;-87
2022/11/28 12:56:49;;;;;;;7.80;4.68;;;8.90;99.90;;;;;;5058161;28;20032;-82
2022/11/28 12:59:20;;;;;;;9.30;5.07;;;9.00;99.90;;;;;;5059460;28;20029;-86
2022/11/28 13:01:54;;;;;;;11.82;5.07;;;9.10;99.90;;;;;;5065059;28;20025;-83
2022/11/28 13:04:41;;;;;;;9.48;5.00;;;9.00;99.90;;;;;;5062024;28;20036;-83
2022/11/28 13:07:15;;;;;;;9.93;5.43;;;9.10;99.90;;;;;;5064180;28;20083;-83
2022/11/28 13:10:11;;;;;;;8.48;5.03;;;9.00;99.90;;;;;;5067544;28;20046;-83
2022/11/28 13:12:39;;;;;;;11.30;5.38;;;9.00;99.90;;;;;;5070833;28;20048;-87
2022/11/28 13:15:18;;;;;;;9.80;5.40;;;9.00;99.90;;;;;;5063268;28;20041;-80
2022/11/28 13:17:54;;;;;;;10.43;5.45;;;9.00;99.90;;;;;;5068410;28;20052;-80